ADDS METAR Data INFO
IDs: Format: Raw Decoded Include TAF

Data at: 0635 UTC 15 Dec 2017

KHZD 150610Z AUTO 00000KT 10SM OVC042 00/M04 A3011 RMK A01
KHZD 150555Z AUTO 00000KT 10SM OVC042 00/M04 A3011 RMK A01
KHZD 150535Z AUTO 00000KT 10SM OVC042 00/M04 A3012 RMK A01
KHZD 150515Z AUTO 00000KT 10SM OVC042 00/M04 A3012 RMK A01
KHZD 150450Z AUTO 00000KT 10SM OVC043 M00/M04 A3012 RMK A01
KHZD 150435Z AUTO 00000KT 10SM OVC043 M00/M04 A3012 RMK A01
KHZD 150415Z AUTO 00000KT 10SM OVC044 M01/M03 A3011 RMK A01
KHZD 150350Z AUTO 00000KT 10SM OVC044 M02/M05 A3011 RMK A01
KHZD 150335Z AUTO 00000KT 10SM OVC045 M02/M05 A3011 RMK A01
KHZD 150315Z AUTO 00000KT 10SM OVC046 M02/M05 A3011 RMK A01
KHZD 150255Z AUTO 00000KT 10SM BKN045 00/M05 A3011 RMK A01
KHZD 150230Z AUTO 00000KT 10SM OVC043 M00/M04 A3011 RMK A01
KHZD 150215Z AUTO 00000KT 10SM BKN042 M00/M04 A3010 RMK A01
KHZD 150155Z AUTO 00000KT 10SM BKN042 M00/M04 A3010 RMK A01
KHZD 150135Z AUTO 00000KT OVC042 00/M05 A3009 RMK A01
KHZD 150110Z AUTO 01003KT 10SM OVC042 01/M05 A3009 RMK A01
KHZD 150055Z AUTO 02004KT 10SM OVC042 02/M04 A3008 RMK A01
KHZD 150035Z AUTO VRB05KT 10SM OVC039 02/M04 A3009 RMK A01
KHZD 150015Z AUTO VRB05KT 10SM OVC038 02/M04 A3008 RMK A01
KHZD 142355Z AUTO 01005KT 10SM OVC038 02/M04 A3007 RMK A01
KHZD 142335Z AUTO 01004KT 10SM OVC039 02/M04 A3007 RMK A01
KHZD 142315Z AUTO 03006KT 10SM OVC039 03/M04 A3006 RMK A01
KHZD 142255Z AUTO 02006G11KT 10SM OVC039 03/M04 A3006 RMK A01
KHZD 142235Z AUTO 00000G10KT 10SM OVC038 03/M04 A3005 RMK A01
KHZD 142215Z AUTO VRB03KT 10SM OVC037 04/M04 A3005 RMK A01
KHZD 142155Z AUTO 02005KT 10SM OVC039 04/M04 A3005 RMK A01
KHZD 142135Z AUTO 03005KT 10SM OVC040 04/M04 A3004 RMK A01
KHZD 142115Z AUTO 04005KT 10SM OVC040 04/M04 A3004 RMK A01
KHZD 142055Z AUTO 04006KT 10SM OVC041 04/M04 A3004 RMK A01
KHZD 142035Z AUTO 04005KT 10SM OVC041 04/M04 A3003 RMK A01
KHZD 142015Z AUTO 02006KT 10SM OVC039 04/M04 A3004 RMK A01
KHZD 141955Z AUTO 35005KT 10SM OVC035 04/M03 A3004 RMK A01
KHZD 141935Z AUTO 36005KT 10SM OVC035 04/M03 A3004 RMK A01
KHZD 141915Z AUTO VRB05KT 10SM OVC033 04/M03 A3003 RMK A01
KHZD 141855Z AUTO 35006KT 10SM OVC032 04/M03 A3002 RMK A01
KHZD 141835Z AUTO 01005KT 10SM OVC034 05/M03 A3002 RMK A01
KHZD 141815Z AUTO VRB06KT 10SM OVC034 05/M03 A3003 RMK A01
KHZD 141755Z AUTO VRB06G12KT 10SM OVC034 05/M03 A3003 RMK A01
KHZD 141735Z AUTO VRB04G10KT 10SM OVC034 05/M03 A3003 RMK A01
KHZD 141715Z AUTO 03010KT 10SM OVC034 05/M03 A3003 RMK A01
KHZD 141655Z AUTO 02007KT 350V050 10SM OVC036 06/M03 A3005 RMK A01
KHZD 141635Z AUTO 34008KT 10SM BKN034 05/M04 A3005 RMK A01
KHZD 141615Z AUTO VRB06G11KT 10SM FEW034 04/M04 A3005 RMK A01
KHZD 141555Z AUTO 02008KT 10SM FEW032 04/M04 A3003 RMK A01
KHZD 141535Z AUTO VRB05G14KT 10SM FEW032 05/M03 A3002 RMK A01
KHZD 141515Z AUTO 35009G15KT 330V030 10SM CLR 04/M03 A3001 RMK A01
KHZD 141455Z AUTO 03009G14KT 10SM CLR 04/M03 A3000 RMK A01
KHZD 141435Z AUTO 03008KT 10SM CLR 03/M02 A2999 RMK A01
KHZD 141415Z AUTO 03005KT 10SM CLR 03/M02 A2998 RMK A01
KHZD 141355Z AUTO 00000KT 10SM CLR 02/M02 A2997 RMK A01
KHZD 141335Z AUTO VRB03KT 10SM CLR 02/M02 A2996 RMK A01
KHZD 141315Z AUTO 01003KT 10SM CLR 00/M02 A2995 RMK A01
KHZD 141255Z AUTO 00000KT 10SM FEW035 01/M02 A2996 RMK A01
KHZD 141235Z AUTO 35003KT 10SM OVC033 01/M02 A2994 RMK A01
KHZD 141215Z AUTO 00000KT 10SM OVC031 01/M03 A2994 RMK A01
KHZD 141155Z AUTO 00000KT 10SM OVC033 M00/M02 A2992 RMK A01
KHZD 141135Z AUTO 00000KT 10SM OVC034 M00/M03 A2993 RMK A01
KHZD 141115Z AUTO 00000KT 10SM BKN035 02/M02 A2993 RMK A01
KHZD 141055Z AUTO 02004KT 10SM SCT034 02/M02 A2991 RMK A01
KHZD 141035Z AUTO VRB04KT 10SM FEW035 03/M02 A2990 RMK A01
KHZD 141015Z AUTO 01004KT 10SM FEW033 FEW042 03/M01 A2989 RMK A01
KHZD 140955Z AUTO VRB04KT 10SM CLR 04/M01 A2989 RMK A01
KHZD 140935Z AUTO VRB04KT 10SM CLR 04/M01 A2988 RMK A01
KHZD 140915Z AUTO VRB04KT 10SM FEW043 FEW049 04/M01 A2987 RMK A01
KHZD 140850Z AUTO 35004KT 10SM FEW036 FEW047 05/M01 A2987 RMK A01
KHZD 140835Z AUTO 02004KT 10SM FEW047 05/M01 A2987 RMK A01
KHZD 140815Z AUTO 01005G14KT 10SM CLR 05/M02 A2985 RMK A01
KHZD 140755Z AUTO 00000KT 10SM CLR 03/M03 A2985 RMK A01
KHZD 140735Z AUTO 23004KT 10SM CLR 04/M03 A2984 RMK A01
KHZD 140715Z AUTO 00000KT 10SM FEW046 FEW050 03/M03 A2982 RMK A01
KHZD 140655Z AUTO 00000KT 10SM FEW045 SCT055 03/M03 A2981 RMK A01
KHZD 140635Z AUTO 00000KT 10SM FEW044 BKN055 04/M03 A2980 RMK A01
KHZD 140615Z AUTO 00000KT 10SM BKN055 05/M03 A2980 RMK A01
KHZD 140555Z AUTO 00000KT 10SM SCT055 06/M03 A2980 RMK A01
KHZD 140535Z AUTO 26003KT 10SM FEW048 SCT055 06/M03 A2980 RMK A01
KHZD 140515Z AUTO 00000KT 10SM FEW040 BKN049 BKN055 07/M03 A2980 RMK A01
KHZD 140455Z AUTO 00000KT 10SM FEW036 SCT042 BKN047 07/M03 A2979 RMK A01
KHZD 140430Z AUTO VRB03KT 10SM FEW044 FEW049 OVC055 07/M03 A2979 RMK A01
KHZD 140415Z AUTO 24005KT 10SM FEW050 OVC060 08/M03 A2979 RMK A01
KHZD 140350Z AUTO 28006G11KT 10SM FEW046 SCT055 BKN065 08/M03 A2978 RMK A01
KHZD 140335Z AUTO 25006KT 10SM FEW043 SCT055 08/M03 A2977 RMK A01
KHZD 140315Z AUTO 25005KT 10SM BKN055 08/M03 A2977 RMK A01
KHZD 140255Z AUTO 24007KT 210V270 10SM FEW050 BKN060 09/M03 A2977 RMK A01
KHZD 140235Z AUTO 26005G11KT 10SM FEW050 BKN060 08/M03 A2977 RMK A01
KHZD 140215Z AUTO 23006KT 10SM FEW050 SCT055 08/M03 A2976 RMK A01
KHZD 140155Z AUTO 23006KT 10SM FEW046 SCT055 09/M03 A2976 RMK A01
KHZD 140135Z AUTO 23007KT 10SM FEW044 SCT055 09/M03 A2975 RMK A01
KHZD 140115Z AUTO 23006KT 10SM SCT055 09/M03 A2975 RMK A01
KHZD 140055Z AUTO 23006KT 10SM FEW050 FEW060 09/M03 A2975 RMK A01
KHZD 140035Z AUTO 23006G11KT 10SM CLR 09/M03 A2975 RMK A01
KHZD 140015Z AUTO 23007KT 10SM CLR 09/M03 A2975 RMK A01
KHZD 132355Z AUTO 23007KT 10SM CLR 10/M04 A2974 RMK A01
KHZD 132335Z AUTO 23006KT 10SM CLR 10/M04 A2974 RMK A01
KHZD 132315Z AUTO 24007KT 10SM FEW034 10/M04 A2973 RMK A01
KHZD 132255Z AUTO 24008KT 10SM CLR 10/M04 A2973 RMK A01
KHZD 132235Z AUTO 24009KT 10SM CLR 11/M04 A2972 RMK A01
KHZD 132215Z AUTO 23009G15KT 10SM CLR 11/M04 A2972 RMK A01
KHZD 132155Z AUTO 23010KT 10SM CLR 12/M04 A2972 RMK A01
KHZD 132135Z AUTO 24010G16KT 10SM CLR 12/M05 A2973 RMK A01
KHZD 132115Z AUTO 24015G23KT 10SM CLR 12/M05 A2972 RMK A01
KHZD 132055Z AUTO 24009G17KT 10SM CLR 12/M05 A2972 RMK A01
KHZD 132035Z AUTO 23013G21KT 10SM CLR 12/M06 A2972 RMK A01
KHZD 132015Z AUTO 22016G22KT 10SM CLR 13/M06 A2971 RMK A01
KHZD 131955Z AUTO 22014G25KT 10SM CLR 12/M06 A2972 RMK A01
KHZD 131935Z AUTO 21018G24KT 10SM CLR 12/M07 A2972 RMK A01
KHZD 131915Z AUTO 22013G21KT 10SM CLR 11/M07 A2974 RMK A01
KHZD 131855Z AUTO 21016G23KT 10SM CLR 11/M07 A2974 RMK A01